createdAt,value
2019-06-11T00:02:25.488Z,80.40
2019-06-11T00:04:38.210Z,80.60
2019-06-11T00:07:08.651Z,80.60
2019-06-11T00:09:38.703Z,80.50
2019-06-11T00:12:09.196Z,80.40
2019-06-11T00:14:42.761Z,80.40
2019-06-11T00:17:12.913Z,80.50
2019-06-11T00:19:43.023Z,80.50
2019-06-11T00:22:12.571Z,80.50
2019-06-11T00:24:42.358Z,80.70
2019-06-11T00:27:13.200Z,80.50
2019-06-11T00:29:43.123Z,80.60
2019-06-11T00:32:26.985Z,80.90
2019-06-11T00:34:46.999Z,81.10
2019-06-11T00:37:16.739Z,81.20
2019-06-11T00:39:46.167Z,81.50
2019-06-11T00:42:15.518Z,81.60
2019-06-11T00:44:44.978Z,81.80
2019-06-11T00:47:14.459Z,82.00
2019-06-11T00:49:43.912Z,82.10
2019-06-11T00:52:13.351Z,82.30
2019-06-11T00:54:42.857Z,82.70
2019-06-11T00:57:12.440Z,83.00
2019-06-11T00:59:42.283Z,83.30
2019-06-11T01:02:14.052Z,83.40
2019-06-11T01:04:42.769Z,83.60
2019-06-11T01:07:13.219Z,83.70
2019-06-11T01:09:43.181Z,83.80
2019-06-11T01:12:15.121Z,84.00
2019-06-11T01:14:43.748Z,84.10
2019-06-11T01:17:14.643Z,84.10
2019-06-11T01:19:44.227Z,84.20
2019-06-11T01:22:14.703Z,84.20
2019-06-11T01:24:44.322Z,84.20
2019-06-11T01:27:13.707Z,84.30
2019-06-11T01:29:43.239Z,84.30
2019-06-11T01:32:14.311Z,84.10
2019-06-11T01:34:43.971Z,84.00
2019-06-11T01:37:17.550Z,83.80
2019-06-11T01:39:44.549Z,83.80
2019-06-11T01:42:15.378Z,83.90
2019-06-11T01:44:45.046Z,83.80
2019-06-11T01:47:15.494Z,83.80
2019-06-11T01:49:45.081Z,83.80
2019-06-11T01:52:14.896Z,83.80
2019-06-11T01:54:44.349Z,83.80
2019-06-11T01:57:16.134Z,84.80
2019-06-11T01:59:45.380Z,84.20
2019-06-11T02:02:15.641Z,84.40
2019-06-11T02:04:45.228Z,84.40
2019-06-11T02:07:16.453Z,84.60
2019-06-11T02:09:45.672Z,84.60
2019-06-11T02:12:16.431Z,84.70
2019-06-11T02:14:48.973Z,84.80
2019-06-11T02:17:18.307Z,84.80
2019-06-11T02:19:47.651Z,84.80
2019-06-11T02:22:17.077Z,84.70
2019-06-11T02:24:46.454Z,84.80
2019-06-11T02:27:17.038Z,85.00
2019-06-11T02:29:46.646Z,85.00
2019-06-11T02:32:22.866Z,85.10
2019-06-11T02:35:12.533Z,85.00
2019-06-11T02:37:23.019Z,84.90
2019-06-11T02:39:52.416Z,84.90
2019-06-11T02:42:27.154Z,84.90
2019-06-11T02:44:52.958Z,84.90
2019-06-11T02:47:28.892Z,85.00
2019-06-11T02:49:54.411Z,85.20
2019-06-11T02:52:27.871Z,85.10
2019-06-11T02:54:54.788Z,85.30
2019-06-11T02:57:29.647Z,85.40
2019-06-11T02:59:55.227Z,85.70
2019-06-11T03:02:31.125Z,85.80
2019-06-11T03:05:09.168Z,85.90
2019-06-11T03:07:33.340Z,86.00
2019-06-11T03:10:04.126Z,86.20
2019-06-11T03:12:35.754Z,86.30
2019-06-11T03:15:06.562Z,86.40
2019-06-11T03:17:35.983Z,86.50
2019-06-11T03:20:33.597Z,86.60
2019-06-11T03:23:02.052Z,86.60
2019-06-11T03:25:34.456Z,86.70
2019-06-11T03:28:01.719Z,86.80
2019-06-11T03:31:08.091Z,86.90
2019-06-11T03:38:23.196Z,87.90
2019-06-11T03:40:37.014Z,87.10
2019-06-11T03:43:06.575Z,87.10
2019-06-11T03:45:36.037Z,87.20
2019-06-11T03:48:05.472Z,87.20
2019-06-11T03:50:34.840Z,87.30
2019-06-11T03:53:05.827Z,87.30
2019-06-11T03:55:35.244Z,87.30
2019-06-11T03:58:06.743Z,87.20
2019-06-11T04:00:45.802Z,87.20
2019-06-11T04:03:07.328Z,87.40
2019-06-11T04:05:36.806Z,87.30
2019-06-11T04:08:06.340Z,87.20
2019-06-11T04:10:37.377Z,87.20
2019-06-11T04:13:11.750Z,87.20
2019-06-11T04:15:41.834Z,87.00
2019-06-11T04:18:11.991Z,86.90
2019-06-11T04:20:43.559Z,86.60
2019-06-11T04:23:16.315Z,86.60
2019-06-11T04:25:44.742Z,87.40
2019-06-11T04:28:17.422Z,86.70
2019-06-11T04:30:48.829Z,86.60
2019-06-11T04:33:21.004Z,86.40
2019-06-11T04:35:51.402Z,86.30
2019-06-11T04:38:29.234Z,86.00
2019-06-11T04:40:52.859Z,85.80
2019-06-11T04:43:28.370Z,85.70
2019-06-11T04:45:53.779Z,85.50
2019-06-11T04:48:30.615Z,85.40
2019-06-11T04:51:02.095Z,85.20
2019-06-11T04:53:36.226Z,85.10
2019-06-11T04:56:03.476Z,84.90
2019-06-11T04:58:39.271Z,84.70
2019-06-11T05:04:13.954Z,84.50
2019-06-11T05:06:12.157Z,84.20
2019-06-11T05:08:44.470Z,84.20
2019-06-11T05:11:12.655Z,84.40
2019-06-11T05:14:04.628Z,84.20
2019-06-11T05:16:14.213Z,84.10
2019-06-11T05:18:43.715Z,83.80
2019-06-11T05:21:13.526Z,83.60
2019-06-11T05:23:43.544Z,83.40
2019-06-11T05:26:14.989Z,83.20
2019-06-11T05:28:44.054Z,83.00
2019-06-11T05:31:13.502Z,82.50
2019-06-11T05:33:44.950Z,82.00
2019-06-11T05:36:18.081Z,82.00
2019-06-11T05:38:53.340Z,81.80
2019-06-11T05:41:23.775Z,81.60
2019-06-11T05:43:51.181Z,81.40
2019-06-11T05:46:25.631Z,81.40
2019-06-11T05:48:52.135Z,81.40
2019-06-11T05:51:23.182Z,81.40
2019-06-11T05:53:53.667Z,81.20
2019-06-11T05:56:34.158Z,80.90
2019-06-11T05:59:26.799Z,80.90
2019-06-11T06:02:04.547Z,81.10
2019-06-11T06:04:31.014Z,80.80
2019-06-11T06:07:00.782Z,80.80
2019-06-11T06:09:32.394Z,80.90
2019-06-11T06:12:01.511Z,80.90
2019-06-11T06:14:32.426Z,80.70
2019-06-11T06:17:01.996Z,80.50
2019-06-11T06:19:34.539Z,80.60
2019-06-11T06:22:05.331Z,80.70
2019-06-11T06:24:42.016Z,80.80
2019-06-11T06:27:06.071Z,80.70
2019-06-11T06:29:36.643Z,80.80
2019-06-11T06:32:06.142Z,80.80
2019-06-11T06:34:35.632Z,80.80
2019-06-11T06:37:05.082Z,80.40
2019-06-11T06:39:37.009Z,80.20
2019-06-11T06:42:05.637Z,80.10
2019-06-11T06:44:35.326Z,80.00
2019-06-11T06:47:04.973Z,79.80
2019-06-11T06:49:36.727Z,79.40
2019-06-11T06:52:05.691Z,78.80
2019-06-11T06:54:40.751Z,78.30
2019-06-11T06:57:06.629Z,77.90
2019-06-11T06:59:37.355Z,77.50
2019-06-11T07:02:07.590Z,77.20
2019-06-11T07:04:41.385Z,76.80
2019-06-11T07:07:08.139Z,76.50
2019-06-11T07:09:39.004Z,76.30
2019-06-11T07:12:10.875Z,76.40
2019-06-11T07:14:42.028Z,76.80
2019-06-11T07:17:12.031Z,77.00
2019-06-11T07:19:45.666Z,77.00
2019-06-11T07:22:12.905Z,76.70
2019-06-11T07:24:44.359Z,76.60
2019-06-11T07:27:13.345Z,76.60
2019-06-11T07:29:44.561Z,76.40
2019-06-11T07:32:13.785Z,76.90
2019-06-11T07:34:48.132Z,75.70
2019-06-11T07:37:14.257Z,75.50
2019-06-11T07:39:45.056Z,75.50
2019-06-11T07:42:14.824Z,75.30
2019-06-11T07:44:45.649Z,75.20
2019-06-11T07:47:15.484Z,74.60
2019-06-11T07:49:47.070Z,74.50
2019-06-11T07:52:16.288Z,74.10
2019-06-11T07:54:47.222Z,73.70
2019-06-11T07:57:16.934Z,73.50
2019-06-11T07:59:46.445Z,73.40
2019-06-11T08:02:15.986Z,73.10
2019-06-11T08:04:50.138Z,72.60
2019-06-11T08:07:16.554Z,72.30
2019-06-11T08:10:10.133Z,72.10
2019-06-11T08:12:17.250Z,71.90
2019-06-11T08:14:52.486Z,71.50
2019-06-11T08:17:17.910Z,71.10
2019-06-11T08:20:07.478Z,70.70
2019-06-11T08:22:25.448Z,70.60
2019-06-11T08:24:58.344Z,70.50
2019-06-11T08:27:31.843Z,70.80
2019-06-11T08:29:51.610Z,70.80
2019-06-11T08:32:21.099Z,70.50
2019-06-11T08:34:51.091Z,70.20
2019-06-11T08:37:20.532Z,69.50
2019-06-11T08:40:10.719Z,69.00
2019-06-11T08:42:21.613Z,69.10
2019-06-11T08:45:05.186Z,69.10
2019-06-11T08:47:22.061Z,68.60
2019-06-11T08:49:51.507Z,68.10
2019-06-11T08:52:20.981Z,67.70
2019-06-11T08:54:51.239Z,67.80
2019-06-11T08:57:20.874Z,68.00
2019-06-11T09:00:15.279Z,68.00
2019-06-11T09:02:21.386Z,68.20
2019-06-11T09:04:52.686Z,68.50
2019-06-11T09:07:22.079Z,68.60
2019-06-11T09:09:53.213Z,68.50
2019-06-11T09:12:22.547Z,68.10
2019-06-11T09:14:53.858Z,67.80
2019-06-11T09:17:23.038Z,67.50
2019-06-11T09:19:53.253Z,67.50
2019-06-11T09:22:22.935Z,66.90
2019-06-11T09:24:53.349Z,67.00
2019-06-11T09:27:22.892Z,66.80
2019-06-11T09:29:56.594Z,66.30
2019-06-11T09:32:23.385Z,65.90
2019-06-11T09:34:53.980Z,65.40
2019-06-11T09:37:23.731Z,65.40
2019-06-11T09:39:55.814Z,65.10
2019-06-11T09:42:24.453Z,64.40
2019-06-11T09:44:54.848Z,63.60
2019-06-11T09:47:38.317Z,63.40
2019-06-11T09:49:56.505Z,63.10
2019-06-11T09:52:25.882Z,63.00
2019-06-11T09:54:55.306Z,62.50
2019-06-11T09:57:24.816Z,62.40
2019-06-11T09:59:54.244Z,62.10
2019-06-11T10:02:23.658Z,62.10
2019-06-11T10:04:57.581Z,62.20
2019-06-11T10:07:24.189Z,62.10
2019-06-11T10:09:53.838Z,62.00
2019-06-11T10:12:23.270Z,62.30
2019-06-11T10:14:54.080Z,62.40
2019-06-11T10:17:23.609Z,62.80
2019-06-11T10:19:55.283Z,62.80
2019-06-11T10:22:25.684Z,62.70
2019-06-11T10:24:55.399Z,62.80
2019-06-11T10:27:24.850Z,62.80
2019-06-11T10:29:55.677Z,62.30
2019-06-11T10:32:25.175Z,62.20
2019-06-11T10:34:55.210Z,62.20
2019-06-11T10:37:24.735Z,62.20
2019-06-11T10:39:55.693Z,62.20
2019-06-11T10:42:39.886Z,62.00
2019-06-11T10:44:56.521Z,62.10
2019-06-11T10:47:40.301Z,61.70
2019-06-11T10:50:10.393Z,61.70
2019-06-11T10:52:41.949Z,61.60
2019-06-11T10:55:13.067Z,61.70
2019-06-11T10:57:42.416Z,61.40
2019-06-11T11:00:14.493Z,61.10
2019-06-11T11:02:47.090Z,60.90
2019-06-11T11:05:16.850Z,60.60
2019-06-11T11:07:47.405Z,60.80
2019-06-11T11:10:17.321Z,60.50
2019-06-11T11:12:47.521Z,60.30
2019-06-11T11:15:17.490Z,60.10
2019-06-11T11:17:47.676Z,60.00
2019-06-11T11:20:17.558Z,59.90
2019-06-11T11:22:47.823Z,59.70
2019-06-11T11:25:20.144Z,59.70
2019-06-11T11:31:30.206Z,59.50
2019-06-11T11:34:01.315Z,59.50
2019-06-11T11:36:31.316Z,59.20
2019-06-11T11:39:01.100Z,58.50
2019-06-11T11:42:04.825Z,58.90
2019-06-11T11:44:33.507Z,57.80
2019-06-11T11:47:03.765Z,57.50
2019-06-11T11:49:36.441Z,57.10
2019-06-11T11:52:06.779Z,56.20
2019-06-11T11:54:40.779Z,55.10
2019-06-11T11:57:11.279Z,53.90
2019-06-11T11:59:45.753Z,53.60
2019-06-11T12:02:13.847Z,52.80
2019-06-11T12:04:43.721Z,52.20
2019-06-11T12:07:13.511Z,51.30
2019-06-11T12:09:44.130Z,50.90
2019-06-11T12:12:13.837Z,50.50
2019-06-11T12:14:56.203Z,50.50
2019-06-11T12:17:20.244Z,49.40
2019-06-11T12:19:51.120Z,48.30
2019-06-11T12:22:21.862Z,48.00
2019-06-11T12:24:58.017Z,46.90
2019-06-11T12:27:23.163Z,45.80
2019-06-11T12:29:54.907Z,45.10
2019-06-11T12:32:24.100Z,44.90
2019-06-11T12:34:55.915Z,44.60
2019-06-11T12:37:24.616Z,44.20
2019-06-11T12:39:56.178Z,43.70
2019-06-11T12:42:25.212Z,43.60
2019-06-11T12:44:55.362Z,43.20
2019-06-11T12:47:28.469Z,42.80
2019-06-11T12:50:03.565Z,42.60
2019-06-11T12:52:33.131Z,42.10
2019-06-11T12:55:06.423Z,41.60
2019-06-11T12:57:34.411Z,41.30
2019-06-11T13:00:09.987Z,41.10
2019-06-11T13:02:41.054Z,40.70
2019-06-11T13:05:11.941Z,40.40
2019-06-11T13:07:42.377Z,40.30
2019-06-11T13:10:13.506Z,40.20
2019-06-11T13:12:43.178Z,40.00
2019-06-11T13:15:13.252Z,39.90
2019-06-11T13:17:45.337Z,39.70
2019-06-11T13:20:15.538Z,39.40
2019-06-11T13:22:44.955Z,39.10
2019-06-11T13:25:14.727Z,39.30
2019-06-11T13:27:44.278Z,39.40
2019-06-11T13:30:14.091Z,39.40
2019-06-11T13:32:43.979Z,39.40
2019-06-11T13:35:14.661Z,39.20
2019-06-11T13:37:44.135Z,39.50
2019-06-11T13:40:17.091Z,39.10
2019-06-11T13:42:46.680Z,38.90
2019-06-11T13:45:21.065Z,38.60
2019-06-11T13:47:50.797Z,38.60
2019-06-11T13:50:21.669Z,38.60
2019-06-11T13:52:52.206Z,38.60
2019-06-11T13:55:22.932Z,38.80
2019-06-11T13:57:54.236Z,39.00
2019-06-11T14:00:25.400Z,39.10
2019-06-11T14:02:59.043Z,39.30
2019-06-11T14:05:26.125Z,39.30
2019-06-11T14:07:58.793Z,39.10
2019-06-11T14:10:30.919Z,39.10
2019-06-11T14:13:04.067Z,39.20
2019-06-11T14:15:33.146Z,39.00
2019-06-11T14:18:05.967Z,39.00
2019-06-11T14:20:33.830Z,38.90
2019-06-11T14:23:05.632Z,38.80
2019-06-11T14:25:36.222Z,38.70
2019-06-11T14:28:07.010Z,38.60
2019-06-11T14:30:36.822Z,39.00
2019-06-11T14:33:08.938Z,39.40
2019-06-11T14:35:40.492Z,39.20
2019-06-11T14:38:11.913Z,39.40
2019-06-11T14:40:42.292Z,39.30
2019-06-11T14:43:12.550Z,39.20
2019-06-11T14:45:42.088Z,39.20
2019-06-11T14:48:12.254Z,39.40
2019-06-11T14:50:50.962Z,39.60
2019-06-11T14:53:21.268Z,39.50
2019-06-11T14:55:51.653Z,39.70
2019-06-11T14:58:22.248Z,39.70
2019-06-11T15:00:52.060Z,40.00
2019-06-11T15:03:21.420Z,40.20
2019-06-11T15:05:50.824Z,40.20
2019-06-11T15:08:20.265Z,40.30
2019-06-11T15:10:50.743Z,40.30
2019-06-11T15:13:21.517Z,40.10
2019-06-11T15:15:51.971Z,39.80
2019-06-11T15:18:21.492Z,39.80
2019-06-11T15:21:24.944Z,40.10
2019-06-11T15:23:57.813Z,40.30
2019-06-11T15:35:39.358Z,40.30
2019-06-11T15:41:05.176Z,40.70
2019-06-11T15:43:35.243Z,40.90
2019-06-11T15:46:08.500Z,41.20
2019-06-11T15:48:41.309Z,41.40
2019-06-11T15:51:13.426Z,41.80
2019-06-11T15:53:50.129Z,40.90
2019-06-11T15:56:35.119Z,41.30
2019-06-11T15:58:55.252Z,41.40
2019-06-11T16:01:24.747Z,41.90
2019-06-11T16:03:53.997Z,42.10
2019-06-11T16:06:30.054Z,42.90
2019-06-11T16:08:55.513Z,43.50
2019-06-11T16:11:24.978Z,43.70
2019-06-11T16:13:54.426Z,44.00
2019-06-11T16:16:26.163Z,44.20
2019-06-11T16:18:57.068Z,44.30
2019-06-11T16:21:26.578Z,44.10
2019-06-11T16:23:57.172Z,43.70
2019-06-11T16:26:26.718Z,44.00
2019-06-11T16:28:56.124Z,44.70
2019-06-11T16:31:25.623Z,45.00
2019-06-11T16:33:56.014Z,45.20
2019-06-11T16:36:25.452Z,45.80
2019-06-11T16:38:56.194Z,45.00
2019-06-11T16:41:43.312Z,45.00
2019-06-11T16:44:18.629Z,45.20
2019-06-11T16:47:01.598Z,45.80
2019-06-11T16:49:31.680Z,46.30
2019-06-11T16:52:07.325Z,47.00
2019-06-11T16:54:36.802Z,47.60
2019-06-11T16:57:07.335Z,48.00
2019-06-11T16:59:43.158Z,48.50
2019-06-11T17:02:15.551Z,48.90
2019-06-11T17:04:44.472Z,49.40
2019-06-11T17:07:13.960Z,50.00
2019-06-11T17:09:43.730Z,50.40
2019-06-11T17:12:24.841Z,50.70
2019-06-11T17:14:51.135Z,50.90
2019-06-11T17:17:23.336Z,52.50
2019-06-11T17:20:04.182Z,52.00
2019-06-11T17:22:33.552Z,52.20
2019-06-11T17:25:03.102Z,52.50
2019-06-11T17:27:47.871Z,52.60
2019-06-11T17:30:06.770Z,52.00
2019-06-11T17:33:01.171Z,50.60
2019-06-11T17:35:32.850Z,49.70
2019-06-11T17:38:02.799Z,48.50
2019-06-11T17:40:35.702Z,48.00
2019-06-11T17:43:06.771Z,47.70
2019-06-11T17:45:36.788Z,47.40
2019-06-11T17:48:13.689Z,47.00
2019-06-11T17:51:05.106Z,46.80
2019-06-11T17:53:34.967Z,46.90
2019-06-11T17:56:05.627Z,47.10
2019-06-11T17:58:37.663Z,47.40
2019-06-11T18:01:08.023Z,49.00
2019-06-11T18:03:37.734Z,50.30
2019-06-11T18:06:07.320Z,51.80
2019-06-11T18:08:37.739Z,53.40
2019-06-11T18:11:10.412Z,54.50
2019-06-11T18:13:41.303Z,55.30
2019-06-11T18:16:11.615Z,56.30
2019-06-11T18:18:41.292Z,57.90
2019-06-11T18:21:11.516Z,59.40
2019-06-11T18:23:50.495Z,60.00
2019-06-11T18:26:22.541Z,60.70
2019-06-11T18:29:04.878Z,61.50
2019-06-11T18:32:18.405Z,61.70
2019-06-11T18:34:51.159Z,61.90
2019-06-11T18:37:24.172Z,62.30
2019-06-11T18:39:53.863Z,63.60
2019-06-11T18:42:25.851Z,64.80
2019-06-11T18:44:55.040Z,65.70
2019-06-11T18:47:25.547Z,66.10
2019-06-11T18:49:55.660Z,66.60
2019-06-11T18:52:28.350Z,67.60
2019-06-11T18:54:59.098Z,68.00
2019-06-11T18:57:32.040Z,68.60
2019-06-11T19:00:01.073Z,68.50
2019-06-11T19:02:34.085Z,69.00
2019-06-11T19:05:04.288Z,69.90
2019-06-11T19:07:33.794Z,70.40
2019-06-11T19:10:03.377Z,71.30
2019-06-11T19:12:34.414Z,72.00
2019-06-11T19:15:04.534Z,72.60
2019-06-11T19:17:43.703Z,72.80
2019-06-11T19:20:05.941Z,73.20
2019-06-11T19:22:35.334Z,73.60
2019-06-11T19:28:33.692Z,74.60
2019-06-11T19:31:03.149Z,74.70
2019-06-11T19:33:34.871Z,75.30
2019-06-11T19:36:04.758Z,75.80
2019-06-11T19:38:36.426Z,75.90
2019-06-11T19:41:17.306Z,76.50
2019-06-11T19:43:46.845Z,76.60
2019-06-11T19:46:16.369Z,77.70
2019-06-11T19:48:45.836Z,77.30
2019-06-11T19:51:15.463Z,77.60
2019-06-11T19:54:10.370Z,78.00
2019-06-11T19:56:55.657Z,78.00
2019-06-11T20:00:23.342Z,78.00
2019-06-11T20:13:40.787Z,78.40
2019-06-11T20:16:33.051Z,78.50
2019-06-11T20:19:01.752Z,78.80
2019-06-11T20:21:35.861Z,78.80
2019-06-11T20:24:31.453Z,79.20
2019-06-11T20:27:00.543Z,79.70
2019-06-11T20:29:31.336Z,79.90
2019-06-11T20:32:06.852Z,80.20
2019-06-11T20:34:37.579Z,80.50
2019-06-11T20:37:07.749Z,80.80
2019-06-11T20:39:38.637Z,81.00
2019-06-11T20:42:08.662Z,81.30
2019-06-11T20:44:41.458Z,81.60
2019-06-11T20:47:10.616Z,81.60
2019-06-11T20:49:42.703Z,81.70
2019-06-11T20:52:11.907Z,82.00
2019-06-11T20:54:42.483Z,82.10
2019-06-11T20:57:12.538Z,82.20
2019-06-11T20:59:46.599Z,82.50
2019-06-11T21:02:16.314Z,82.50
2019-06-11T21:04:46.702Z,82.50
2019-06-11T21:07:20.677Z,83.30
2019-06-11T21:09:52.344Z,82.70
2019-06-11T21:12:21.730Z,82.70
2019-06-11T21:14:51.234Z,82.90
2019-06-11T21:17:20.793Z,83.00
2019-06-11T21:19:50.521Z,83.30
2019-06-11T21:22:21.272Z,83.60
2019-06-11T21:24:53.739Z,83.80
2019-06-11T21:27:23.570Z,84.00
2019-06-11T21:29:53.234Z,84.20
2019-06-11T21:32:22.799Z,84.10
2019-06-11T21:34:52.209Z,84.00
2019-06-11T21:37:23.583Z,84.20
2019-06-11T21:39:53.096Z,84.00
2019-06-11T21:42:22.634Z,83.90
2019-06-11T21:44:56.033Z,83.80
2019-06-11T21:47:25.600Z,83.70
2019-06-11T21:49:55.110Z,83.60
2019-06-11T21:52:27.481Z,83.30
2019-06-11T21:54:57.958Z,82.90
2019-06-11T21:57:30.082Z,82.40
2019-06-11T22:00:05.149Z,82.00
2019-06-11T22:02:35.944Z,81.70
2019-06-11T22:05:06.070Z,81.50
2019-06-11T22:07:36.284Z,81.30
2019-06-11T22:10:06.677Z,81.50
2019-06-11T22:12:36.669Z,81.80
2019-06-11T22:15:06.612Z,82.50
2019-06-11T22:17:36.927Z,82.50
2019-06-11T22:20:06.625Z,82.20
2019-06-11T22:22:37.170Z,81.80
2019-06-11T22:25:06.951Z,81.60
2019-06-11T22:27:37.267Z,81.30
2019-06-11T22:30:07.179Z,80.90
2019-06-11T22:32:39.914Z,80.70
2019-06-11T22:35:10.595Z,80.70
2019-06-11T22:37:41.340Z,80.80
2019-06-11T22:40:11.717Z,80.70
2019-06-11T22:43:05.135Z,80.70
2019-06-11T22:45:34.656Z,80.80
2019-06-11T22:48:04.433Z,80.70
2019-06-11T22:50:33.905Z,80.90
2019-06-11T22:53:03.379Z,81.00
2019-06-11T22:55:33.217Z,81.40
2019-06-11T22:58:03.087Z,81.60
2019-06-11T23:00:32.765Z,81.90
2019-06-11T23:03:02.213Z,82.00
2019-06-11T23:05:31.628Z,82.10
2019-06-11T23:08:01.218Z,82.30
2019-06-11T23:10:30.681Z,82.30
2019-06-11T23:13:03.179Z,82.30
2019-06-11T23:15:31.266Z,82.40
2019-06-11T23:18:01.118Z,82.50
2019-06-11T23:20:30.726Z,82.80
2019-06-11T23:23:00.877Z,83.00
2019-06-11T23:25:30.617Z,83.00
2019-06-11T23:28:00.261Z,82.90
2019-06-11T23:30:30.775Z,83.10
2019-06-11T23:33:00.434Z,83.10
2019-06-11T23:35:30.149Z,83.00
2019-06-11T23:38:00.756Z,83.20
2019-06-11T23:44:00.893Z,83.70
2019-06-11T23:46:30.847Z,83.50
2019-06-11T23:49:01.239Z,83.60
2019-06-11T23:51:31.220Z,83.80
2019-06-11T23:54:00.800Z,84.20
2019-06-11T23:56:30.895Z,84.30
2019-06-11T23:59:00.636Z,84.20
